Time;durP1;ratioP1;P1;durP2;ratioP2;P2;SDS_P1;SDS_P2;PMS_P1;PMS_P2;Temp;Humidity;BMP_temperature;BMP_pressure;BME280_temperature;BME280_humidity;BME280_pressure;Samples;Min_cycle;Max_cycle;Signal;HPM_P1;HPM_P2
2023/01/28 00:01:05;;;;;;;6.45;5.85;;;;;;;2.50;82.78;103051.78;6189738;23;20021;-78
2023/01/28 00:03:32;;;;;;;6.15;5.55;;;;;;;2.47;82.08;103050.56;6189172;23;20097;-78
2023/01/28 00:06:04;;;;;;;6.38;5.78;;;;;;;2.40;81.94;103050.34;6163158;23;20021;-78
2023/01/28 00:08:32;;;;;;;8.30;6.43;;;;;;;2.40;81.98;103055.59;6189167;23;20056;-78
2023/01/28 00:11:00;;;;;;;6.10;5.53;;;;;;;2.43;82.15;103059.44;6189849;23;20092;-78
2023/01/28 00:13:27;;;;;;;6.20;5.60;;;;;;;2.43;81.93;103051.56;6188515;23;20447;-78
2023/01/28 00:15:58;;;;;;;6.20;5.70;;;;;;;2.39;82.00;103055.94;6189818;23;20028;-78
2023/01/28 00:18:27;;;;;;;6.28;5.57;;;;;;;2.38;81.69;103059.66;6189520;23;20028;-78
2023/01/28 00:21:03;;;;;;;6.38;5.78;;;;;;;2.36;81.62;103057.38;6190027;23;20443;-78
2023/01/28 00:23:33;;;;;;;5.72;5.18;;;;;;;2.32;81.17;103049.38;6162615;23;20049;-78
2023/01/28 00:26:02;;;;;;;6.35;5.75;;;;;;;2.33;81.37;103060.66;6189962;23;20026;-78
2023/01/28 00:28:29;;;;;;;6.57;5.97;;;;;;;2.33;81.32;103050.91;6188584;23;20164;-78
2023/01/28 00:30:56;;;;;;;6.35;5.75;;;;;;;2.31;81.32;103052.31;6189869;23;20076;-78
2023/01/28 00:33:23;;;;;;;6.93;6.22;;;;;;;2.35;81.54;103058.47;6189272;23;20014;-78
2023/01/28 00:35:57;;;;;;;6.35;5.75;;;;;;;2.39;81.71;103054.09;6162736;23;20101;-78
2023/01/28 00:38:25;;;;;;;6.32;5.72;;;;;;;2.39;81.70;103061.97;6189397;23;20096;-79
2023/01/28 00:40:52;;;;;;;6.68;5.65;;;;;;;2.38;81.82;103065.69;6162485;23;20483;-78
2023/01/28 00:43:19;;;;;;;7.32;6.57;;;;;;;2.37;82.09;103056.28;6162810;23;20100;-78
2023/01/28 00:45:46;;;;;;;7.40;6.45;;;;;;;2.39;82.52;103053.31;6162762;23;20021;-78
2023/01/28 00:48:15;;;;;;;7.25;6.20;;;;;;;2.39;82.87;103051.47;6162770;23;20042;-78
2023/01/28 00:50:44;;;;;;;9.43;6.43;;;;;;;2.42;82.85;103050.00;6188937;23;20014;-78
2023/01/28 00:53:11;;;;;;;8.32;6.60;;;;;;;2.41;82.94;103056.38;6189891;23;20018;-77
2023/01/28 00:55:37;;;;;;;7.88;6.68;;;;;;;2.40;83.09;103060.84;6189002;23;20061;-78
2023/01/28 00:58:04;;;;;;;8.00;6.15;;;;;;;2.39;82.96;103058.59;6162838;23;20021;-77
2023/01/28 01:00:31;;;;;;;7.07;6.32;;;;;;;2.37;82.98;103056.28;6188791;23;20021;-78
2023/01/28 01:02:58;;;;;;;7.63;6.45;;;;;;;2.37;82.99;103052.88;6163047;23;20021;-78
2023/01/28 01:05:25;;;;;;;7.38;6.30;;;;;;;2.35;82.79;103053.22;6162455;23;20367;-78
2023/01/28 01:07:52;;;;;;;7.38;6.63;;;;;;;2.35;82.88;103053.22;6189441;23;20463;-78
2023/01/28 01:10:19;;;;;;;7.43;6.55;;;;;;;2.36;83.04;103043.47;6161861;23;20022;-78
2023/01/28 01:12:47;;;;;;;7.22;6.53;;;;;;;2.38;82.80;103041.28;6162470;23;20024;-78
2023/01/28 01:15:15;;;;;;;7.07;6.38;;;;;;;2.36;83.00;103038.97;6189116;23;20017;-78
2023/01/28 01:17:45;;;;;;;7.13;6.43;;;;;;;2.36;82.78;103044.22;6163008;23;20080;-78
2023/01/28 01:20:15;;;;;;;6.47;5.88;;;;;;;2.36;82.71;103046.84;6189236;23;20013;-78
2023/01/28 01:22:42;;;;;;;7.25;6.55;;;;;;;2.36;82.71;103049.47;6161938;23;20061;-78
2023/01/28 01:25:11;;;;;;;9.60;7.18;;;;;;;2.38;82.95;103049.16;6188874;23;20053;-78
2023/01/28 01:27:40;;;;;;;6.80;6.15;;;;;;;2.35;82.55;103055.84;6189066;23;20052;-78
2023/01/28 01:30:08;;;;;;;7.00;6.32;;;;;;;2.32;82.48;103057.25;6189748;23;20064;-78
2023/01/28 01:32:35;;;;;;;8.40;7.00;;;;;;;2.27;81.35;103049.56;6162273;23;20017;-78
2023/01/28 01:35:06;;;;;;;6.88;6.18;;;;;;;2.24;81.06;103052.84;6189739;23;20022;-78
2023/01/28 01:37:35;;;;;;;7.85;7.05;;;;;;;2.25;81.39;103057.00;6188786;23;20467;-77
2023/01/28 01:40:03;;;;;;;7.40;6.60;;;;;;;2.25;81.62;103049.13;6189158;23;20017;-78
2023/01/28 01:42:33;;;;;;;7.03;6.35;;;;;;;2.28;81.67;103056.38;6188813;23;20021;-78
2023/01/28 01:45:04;;;;;;;7.72;6.47;;;;;;;2.28;81.81;103051.09;6189452;23;20022;-78
2023/01/28 01:47:46;;;;;;;8.75;6.53;;;;;;;2.26;81.51;103052.53;6188909;23;20018;-78
2023/01/28 01:50:57;;;;;;;7.10;5.97;;;;;;;2.26;81.63;103060.41;6162718;23;20071;-78
2023/01/28 01:53:28;;;;;;;13.07;5.80;;;;;;;2.27;81.27;103069.84;6132111;23;20092;-78
2023/01/28 01:55:59;;;;;;;9.70;6.60;;;;;;;2.23;81.16;103063.69;6187708;23;20333;-78
2023/01/28 01:58:31;;;;;;;7.38;6.15;;;;;;;2.20;80.77;103061.72;6187416;23;20017;-78
2023/01/28 02:00:58;;;;;;;7.10;6.00;;;;;;;2.18;80.65;103069.16;6187333;23;20021;-77
2023/01/28 02:03:37;;;;;;;7.55;6.68;;;;;;;2.19;80.68;103065.44;6187102;23;20022;-78
2023/01/28 02:06:04;;;;;;;6.55;5.88;;;;;;;2.19;80.89;103065.44;6189451;23;20024;-78
2023/01/28 02:08:31;;;;;;;7.15;5.88;;;;;;;2.20;80.88;103072.22;6186178;23;20017;-77
2023/01/28 02:11:02;;;;;;;7.00;6.13;;;;;;;2.17;80.64;103071.00;6189388;23;20018;-77
2023/01/28 02:13:33;;;;;;;7.30;6.55;;;;;;;2.14;80.33;103066.41;6188438;23;20094;-77
2023/01/28 02:16:00;;;;;;;6.68;5.97;;;;;;;2.12;80.26;103065.94;6186612;23;20021;-77
2023/01/28 02:18:27;;;;;;;7.20;6.50;;;;;;;2.12;80.48;103063.31;6185767;23;20044;-77
2023/01/28 02:21:12;;;;;;;7.10;6.38;;;;;;;2.12;80.07;103068.59;6188057;23;20024;-78
2023/01/28 02:24:06;;;;;;;6.50;5.80;;;;;;;2.15;80.75;103064.53;6186711;23;20021;-77
2023/01/28 02:27:09;;;;;;;6.93;6.13;;;;;;;2.14;80.42;103068.25;6186979;23;20088;-77
2023/01/28 02:29:58;;;;;;;7.70;6.60;;;;;;;2.10;79.76;103072.63;6073941;23;20018;-77
2023/01/28 02:32:35;;;;;;;7.68;6.05;;;;;;;2.10;79.91;103077.88;6098505;23;20103;-78
2023/01/28 02:35:14;;;;;;;6.43;5.72;;;;;;;2.10;79.81;103076.03;6074632;23;20019;-78
2023/01/28 02:38:07;;;;;;;6.38;5.57;;;;;;;2.10;80.13;103073.38;6073352;23;20106;-78
2023/01/28 02:41:00;;;;;;;;;;;;;;;2.06;80.06;103072.50;6098010;23;20061;-77
2023/01/28 02:43:31;;;;;;;7.22;5.78;;;;;;;2.04;79.50;103073.91;6122502;23;19921;-78
2023/01/28 02:48:45;;;;;;;6.82;5.65;;;;;;;2.01;79.56;103076.09;6074205;23;20216;-78
2023/01/28 02:51:33;;;;;;;6.57;5.85;;;;;;;2.00;79.60;103077.19;6061234;23;20093;-78
2023/01/28 02:54:07;;;;;;;6.43;5.47;;;;;;;2.01;78.96;103075.34;6098870;23;20086;-78
2023/01/28 02:56:54;;;;;;;6.80;6.10;;;;;;;1.99;78.87;103069.66;6073639;23;20023;-78
2023/01/28 02:59:35;;;;;;;7.20;5.70;;;;;;;1.99;79.19;103080.16;6097863;23;20088;-78
2023/01/28 03:02:17;;;;;;;6.35;5.72;;;;;;;1.98;78.91;103070.75;6098988;23;20026;-78
2023/01/28 03:05:02;;;;;;;6.72;6.00;;;;;;;1.96;79.08;103065.03;6125494;23;20022;-78
2023/01/28 03:07:32;;;;;;;6.47;5.78;;;;;;;1.95;79.11;103055.63;6162489;23;20018;-77
2023/01/28 03:10:03;;;;;;;7.53;5.95;;;;;;;1.97;79.18;103058.72;6164422;23;20026;-77
2023/01/28 03:38:42;;;;;;;7.03;5.82;;;;;;;1.92;79.52;103067.56;6163140;23;20455;-77
2023/01/28 03:41:12;;;;;;;;;;;;;;;1.93;79.62;103066.47;6163600;23;20497;-77
2023/01/28 03:43:40;;;;;;;7.53;5.78;;;;;;;1.90;79.09;103068.97;6162857;23;19924;-77
2023/01/28 03:46:07;;;;;;;5.90;5.15;;;;;;;1.89;79.15;103067.44;6163021;23;20037;-77
2023/01/28 03:48:33;;;;;;;10.27;6.05;;;;;;;1.91;78.82;103067.88;6162448;23;20023;-77
2023/01/28 03:51:04;;;;;;;6.82;5.85;;;;;;;1.92;78.94;103066.78;6138637;23;20025;-77
2023/01/28 03:53:31;;;;;;;6.95;6.03;;;;;;;1.93;78.88;103076.97;6162421;23;20038;-77
2023/01/28 03:55:58;;;;;;;6.80;5.70;;;;;;;1.92;78.98;103078.06;6163031;23;20112;-77
2023/01/28 03:58:26;;;;;;;7.15;6.00;;;;;;;1.93;78.70;103071.72;6162647;23;20022;-77
2023/01/28 04:00:53;;;;;;;7.38;6.43;;;;;;;1.92;78.73;103072.81;6163031;23;20404;-77
2023/01/28 04:03:20;;;;;;;7.80;6.07;;;;;;;1.93;78.64;103068.31;6162792;23;20029;-77
2023/01/28 04:06:03;;;;;;;6.60;5.90;;;;;;;1.90;78.52;103069.72;6162797;23;20080;-77
2023/01/28 04:08:47;;;;;;;5.80;5.20;;;;;;;1.89;78.09;103080.56;6141347;23;20021;-77
2023/01/28 04:11:32;;;;;;;7.05;5.97;;;;;;;1.86;77.44;103073.31;6188868;23;20021;-77
2023/01/28 04:14:02;;;;;;;6.18;5.53;;;;;;;1.86;77.68;103075.94;6162816;23;20029;-77
2023/01/28 04:16:53;;;;;;;6.22;5.55;;;;;;;1.86;77.68;103087.22;6181242;23;20025;-77
2023/01/28 04:19:21;;;;;;;9.00;5.72;;;;;;;1.85;77.32;103087.53;6162176;23;20041;-77
2023/01/28 04:21:49;;;;;;;6.63;5.60;;;;;;;1.82;77.14;103088.97;6162722;23;20026;-77
2023/01/28 04:24:15;;;;;;;6.35;5.75;;;;;;;1.83;77.05;103089.72;6162724;23;20022;-77
2023/01/28 04:26:42;;;;;;;6.80;5.93;;;;;;;1.83;76.90;103095.75;6162571;23;20092;-77
2023/01/28 04:29:09;;;;;;;7.40;6.53;;;;;;;1.80;76.84;103101.63;6162889;23;20021;-77
2023/01/28 04:31:37;;;;;;;7.38;6.28;;;;;;;1.79;76.50;103104.59;6162616;23;20018;-77
2023/01/28 04:34:16;;;;;;;7.65;5.90;;;;;;;1.78;76.29;103109.06;6162006;23;20081;-77
2023/01/28 04:37:09;;;;;;;6.65;5.95;;;;;;;1.79;77.10;103107.97;6143471;23;20053;-77
2023/01/28 04:39:42;;;;;;;6.18;5.50;;;;;;;1.79;77.01;103112.47;6189517;23;20088;-77
2023/01/28 04:42:18;;;;;;;6.97;6.25;;;;;;;1.78;76.84;103119.56;6162780;23;20113;-77
2023/01/28 04:45:01;;;;;;;6.80;6.10;;;;;;;1.80;77.21;103106.13;6162659;23;20028;-78
2023/01/28 04:47:46;;;;;;;6.57;5.85;;;;;;;1.79;77.13;103115.88;6188376;23;20029;-77
2023/01/28 04:50:39;;;;;;;7.20;6.03;;;;;;;1.74;75.88;103102.16;6163592;23;20021;-78
2023/01/28 04:53:26;;;;;;;6.47;5.88;;;;;;;1.74;76.01;103100.28;6162367;23;20024;-77
2023/01/28 04:55:57;;;;;;;7.57;5.80;;;;;;;1.73;76.35;103103.25;6163051;23;20534;-77
2023/01/28 04:58:25;;;;;;;6.00;5.50;;;;;;;1.72;76.14;103099.06;6162307;23;20395;-77
2023/01/28 05:00:58;;;;;;;8.60;6.40;;;;;;;1.70;76.50;103094.16;6163024;23;20018;-77
2023/01/28 05:03:25;;;;;;;6.45;5.78;;;;;;;1.68;76.40;103088.44;6137065;23;20021;-78
2023/01/28 05:05:53;;;;;;;9.23;5.80;;;;;;;1.66;76.36;103077.50;6162593;23;20448;-77
2023/01/28 05:08:33;;;;;;;6.45;5.82;;;;;;;1.64;75.82;103083.06;6161756;23;20024;-77
2023/01/28 05:11:00;;;;;;;6.05;5.45;;;;;;;1.64;76.35;103088.31;6189524;23;20452;-77
2023/01/28 05:13:26;;;;;;;6.15;5.55;;;;;;;1.63;76.19;103088.63;6162011;23;20021;-77
2023/01/28 05:15:53;;;;;;;6.55;5.82;;;;;;;1.63;76.38;103092.03;6162815;23;20452;-77
2023/01/28 05:18:20;;;;;;;7.13;5.75;;;;;;;1.63;77.08;103086.78;6162036;23;20440;-77
2023/01/28 05:20:59;;;;;;;6.10;5.47;;;;;;;1.63;77.35;103080.75;6162659;23;20017;-77
2023/01/28 05:23:26;;;;;;;6.68;5.97;;;;;;;1.61;77.10;103083.69;6162002;23;20046;-77
2023/01/28 05:25:55;;;;;;;7.30;6.25;;;;;;;1.62;77.26;103076.59;6162558;23;20021;-77
2023/01/28 05:28:22;;;;;;;7.82;5.85;;;;;;;1.64;77.39;103090.16;6162294;23;20384;-78
2023/01/28 05:30:50;;;;;;;6.60;5.90;;;;;;;1.64;77.48;103087.53;6137215;23;20018;-77
2023/01/28 05:33:17;;;;;;;6.65;5.80;;;;;;;1.63;77.69;103081.53;6187075;23;20043;-77
2023/01/28 05:35:44;;;;;;;6.18;5.57;;;;;;;1.64;77.71;103087.53;6162257;23;20072;-77
2023/01/28 05:38:10;;;;;;;6.75;6.00;;;;;;;1.63;77.82;103092.03;6162503;23;20021;-77
2023/01/28 05:40:40;;;;;;;7.97;6.40;;;;;;;1.64;78.31;103096.19;6187819;23;20013;-77
2023/01/28 05:43:07;;;;;;;8.88;6.18;;;;;;;1.62;78.27;103093.13;6138188;23;20077;-77
2023/01/28 05:45:48;;;;;;;6.33;5.67;;;;;;;1.57;78.42;103085.47;6188514;23;20017;-77
2023/01/28 05:48:35;;;;;;;7.03;5.68;;;;;;;1.57;78.66;103092.56;6151268;23;20498;-77
2023/01/28 05:51:20;;;;;;;6.05;5.28;;;;;;;1.56;78.27;103093.66;6189092;23;20021;-77
2023/01/28 05:53:53;;;;;;;6.93;5.75;;;;;;;1.56;78.28;103088.41;6162731;23;20055;-77
2023/01/28 05:56:21;;;;;;;6.07;5.28;;;;;;;1.56;78.06;103096.28;6162204;23;20021;-78
2023/01/28 05:58:47;;;;;;;6.03;5.35;;;;;;;1.52;77.63;103090.91;6188713;23;20013;-78
2023/01/28 06:01:14;;;;;;;7.90;6.10;;;;;;;1.55;77.63;103092.88;6188149;23;20021;-78
2023/01/28 06:03:48;;;;;;;6.38;5.47;;;;;;;1.53;77.67;103092.44;6139153;23;20028;-78
2023/01/28 06:06:16;;;;;;;7.75;6.22;;;;;;;1.50;77.90;103087.06;6161883;23;20088;-78
2023/01/28 06:08:42;;;;;;;6.90;5.88;;;;;;;1.51;78.05;103091.97;6162093;23;20464;-78
2023/01/28 06:11:10;;;;;;;7.47;5.88;;;;;;;1.49;77.48;103091.53;6162173;23;20022;-79
2023/01/28 06:13:37;;;;;;;7.32;5.60;;;;;;;1.49;77.31;103099.41;6188608;23;20018;-78
2023/01/28 06:16:23;;;;;;;6.95;5.53;;;;;;;1.47;76.90;103103.44;6187262;23;20026;-78
2023/01/28 06:18:58;;;;;;;6.72;6.00;;;;;;;1.44;76.95;103090.94;6162563;23;20024;-78
2023/01/28 06:21:25;;;;;;;8.55;6.38;;;;;;;1.44;77.06;103094.34;6161869;23;20045;-78
2023/01/28 06:23:56;;;;;;;7.43;5.85;;;;;;;1.47;77.21;103092.94;6162319;23;20100;-78
2023/01/28 06:26:23;;;;;;;7.60;5.82;;;;;;;1.47;77.19;103091.09;6188426;23;20025;-78
2023/01/28 06:28:50;;;;;;;6.75;5.70;;;;;;;1.49;77.53;103091.53;6161165;23;20018;-78
2023/01/28 06:31:17;;;;;;;9.02;6.35;;;;;;;1.49;77.53;103094.16;6188438;23;20014;-78
2023/01/28 06:33:43;;;;;;;8.35;6.15;;;;;;;1.47;77.71;103087.69;6188589;23;20017;-78
2023/01/28 06:36:10;;;;;;;7.18;6.30;;;;;;;1.47;77.86;103091.09;6188484;23;20022;-78
2023/01/28 06:38:37;;;;;;;8.00;6.07;;;;;;;1.48;77.88;103097.88;6161830;23;20021;-79
2023/01/28 06:41:03;;;;;;;8.65;6.28;;;;;;;1.49;78.04;103106.50;6162115;23;20412;-78
2023/01/28 06:43:35;;;;;;;6.85;6.05;;;;;;;1.47;77.78;103111.31;6161295;23;20451;-78
2023/01/28 06:46:02;;;;;;;6.32;5.65;;;;;;;1.45;77.98;103105.63;6189078;23;20530;-78
2023/01/28 06:48:28;;;;;;;6.68;5.70;;;;;;;1.43;78.31;103113.81;6187796;23;20017;-78
2023/01/28 06:50:55;;;;;;;9.25;6.35;;;;;;;1.41;78.44;103115.22;6170566;23;20370;-78
2023/01/28 06:53:22;;;;;;;7.10;6.20;;;;;;;1.39;78.47;103115.53;6189095;23;20021;-77
2023/01/28 06:55:48;;;;;;;8.82;6.70;;;;;;;1.40;78.79;103118.91;6188150;23;20072;-78
2023/01/28 06:58:15;;;;;;;6.93;6.07;;;;;;;1.37;78.81;103125.56;6187286;23;20526;-78
2023/01/28 07:00:41;;;;;;;7.68;6.45;;;;;;;1.34;78.68;103129.59;6188436;23;20044;-78
2023/01/28 07:03:08;;;;;;;7.05;6.28;;;;;;;1.32;78.54;103129.16;6188665;23;20087;-78
2023/01/28 07:05:34;;;;;;;8.65;5.97;;;;;;;1.31;78.48;103135.47;6188745;23;20029;-79
2023/01/28 07:08:01;;;;;;;7.95;5.95;;;;;;;1.30;78.64;103133.19;6189424;23;20443;-79
2023/01/28 07:10:28;;;;;;;8.65;6.57;;;;;;;1.28;78.55;103125.63;6188859;23;20017;-76
2023/01/28 07:12:54;;;;;;;7.53;6.22;;;;;;;1.26;78.37;103130.41;6187701;23;20013;-77
2023/01/28 07:15:21;;;;;;;9.20;7.13;;;;;;;1.27;78.65;103128.56;6187950;23;20025;-77
2023/01/28 07:17:48;;;;;;;9.93;6.65;;;;;;;1.24;78.53;103121.31;6188522;23;20018;-77
2023/01/28 07:20:15;;;;;;;7.72;6.32;;;;;;;1.24;78.72;103131.81;6188295;23;20049;-77
2023/01/28 07:22:43;;;;;;;7.35;6.30;;;;;;;1.20;78.57;103136.94;6190468;23;20018;-78
2023/01/28 07:25:11;;;;;;;6.97;6.22;;;;;;;1.22;78.38;103133.97;6189220;23;20429;-77
2023/01/28 07:27:37;;;;;;;8.30;6.38;;;;;;;1.20;78.21;103139.53;6190226;23;20062;-78
2023/01/28 07:30:04;;;;;;;9.65;6.60;;;;;;;1.19;78.22;103143.28;6189163;23;20358;-78
2023/01/28 07:32:31;;;;;;;9.85;6.63;;;;;;;1.22;78.41;103139.22;6190296;23;20021;-77
2023/01/28 07:34:57;;;;;;;7.07;6.10;;;;;;;1.24;78.73;103134.44;6190468;23;20022;-79
2023/01/28 07:37:24;;;;;;;8.10;6.47;;;;;;;1.25;78.79;103144.63;6190221;23;20102;-78
2023/01/28 07:39:51;;;;;;;7.20;5.72;;;;;;;1.28;78.57;103153.72;6188662;23;20436;-80
2023/01/28 07:42:17;;;;;;;8.30;6.00;;;;;;;1.28;78.83;103162.34;6187873;23;20067;-78
2023/01/28 07:44:45;;;;;;;8.13;6.80;;;;;;;1.28;78.50;103154.47;6188446;23;20030;-80
2023/01/28 07:47:12;;;;;;;7.47;6.55;;;;;;;1.27;78.77;103157.44;6188439;23;20020;-78
2023/01/28 07:49:38;;;;;;;8.52;6.60;;;;;;;1.30;79.39;103167.28;6190726;23;20455;-81
2023/01/28 07:52:06;;;;;;;10.75;7.10;;;;;;;1.30;78.97;103170.69;6165649;23;20026;-81
2023/01/28 07:54:33;;;;;;;9.25;6.95;;;;;;;1.31;79.08;103174.06;6163313;23;20060;-82
2023/01/28 07:57:00;;;;;;;7.10;5.82;;;;;;;1.33;79.20;103166.66;6189817;23;20492;-82
2023/01/28 07:59:26;;;;;;;10.85;6.75;;;;;;;1.31;79.04;103169.59;6190216;23;20018;-81
2023/01/28 08:01:53;;;;;;;9.13;6.63;;;;;;;1.33;79.05;103166.66;6190492;23;20081;-83
2023/01/28 08:04:20;;;;;;;10.50;7.65;;;;;;;1.32;79.08;103167.75;6189804;23;20482;-81
2023/01/28 08:06:47;;;;;;;10.50;7.30;;;;;;;1.33;79.03;103169.28;6163696;23;20049;-83
2023/01/28 08:09:14;;;;;;;8.45;6.32;;;;;;;1.36;78.77;103165.25;6190106;23;20013;-81
2023/01/28 08:11:41;;;;;;;9.43;7.38;;;;;;;1.36;78.89;103160.78;6163367;23;20024;-80
2023/01/28 08:14:09;;;;;;;8.30;6.88;;;;;;;1.38;78.43;103161.22;6190448;23;20022;-82
2023/01/28 08:16:36;;;;;;;8.23;6.18;;;;;;;1.40;78.39;103160.91;6190456;23;20081;-80
2023/01/28 08:19:02;;;;;;;8.88;6.72;;;;;;;1.42;78.40;103171.88;6190673;23;20018;-81
2023/01/28 08:21:29;;;;;;;9.13;6.82;;;;;;;1.42;78.66;103172.63;6163074;23;20403;-81
2023/01/28 08:23:55;;;;;;;8.77;6.93;;;;;;;1.46;78.22;103164.91;6190021;23;20443;-81
2023/01/28 08:26:22;;;;;;;9.02;7.35;;;;;;;1.47;78.12;103175.09;6162677;23;20072;-81
2023/01/28 08:28:49;;;;;;;8.30;6.40;;;;;;;1.48;78.25;103176.63;6163781;23;20013;-83
2023/01/28 08:31:17;;;;;;;10.52;6.72;;;;;;;1.51;78.33;103183.09;6162890;23;20018;-80
2023/01/28 08:33:43;;;;;;;7.88;6.50;;;;;;;1.54;78.62;103182.47;6139065;23;20452;-80
2023/01/28 08:36:10;;;;;;;7.88;6.53;;;;;;;1.55;78.05;103184.00;6163540;23;20014;-82
2023/01/28 08:38:37;;;;;;;8.77;6.68;;;;;;;1.55;78.06;103189.25;6163699;23;20444;-81
2023/01/28 08:41:03;;;;;;;7.97;6.68;;;;;;;1.57;77.87;103184.47;6189732;23;20021;-81
2023/01/28 08:43:30;;;;;;;8.60;7.20;;;;;;;1.61;77.65;103178.22;6189757;23;20692;-80
2023/01/28 08:45:56;;;;;;;7.40;6.60;;;;;;;1.64;77.87;103182.84;6164594;23;20014;-80
2023/01/28 08:48:23;;;;;;;8.32;6.85;;;;;;;1.68;77.64;103185.59;6190018;23;20024;-80
2023/01/28 08:50:49;;;;;;;7.13;6.40;;;;;;;1.68;77.61;103194.25;6189954;23;20006;-79
2023/01/28 08:53:18;;;;;;;8.73;6.93;;;;;;;1.71;77.70;103203.34;6163125;23;20029;-80
2023/01/28 08:55:46;;;;;;;9.18;7.20;;;;;;;1.76;77.62;103202.41;6187907;23;20415;-80
2023/01/28 08:58:15;;;;;;;7.68;6.80;;;;;;;1.80;77.83;103213.81;6190107;23;20013;-80
2023/01/28 09:00:42;;;;;;;7.90;6.82;;;;;;;1.82;77.62;103209.00;6190165;23;20017;-80
2023/01/28 09:03:09;;;;;;;8.88;7.05;;;;;;;1.84;77.55;103215.47;6163266;23;20084;-80
2023/01/28 09:05:36;;;;;;;7.03;6.32;;;;;;;1.85;77.03;103213.63;6190479;23;20093;-80
2023/01/28 09:08:06;;;;;;;8.60;6.78;;;;;;;1.88;76.78;103213.75;6163538;23;20069;-79
2023/01/28 09:10:33;;;;;;;9.65;7.03;;;;;;;1.93;76.83;103213.56;6189374;23;20073;-80
2023/01/28 09:13:04;;;;;;;8.73;7.32;;;;;;;1.96;76.33;103210.31;6190316;23;20033;-80
2023/01/28 09:15:32;;;;;;;10.05;7.65;;;;;;;2.01;76.62;103202.22;6163664;23;20028;-80
2023/01/28 09:17:58;;;;;;;8.07;6.57;;;;;;;2.07;76.70;103209.91;6190314;23;20014;-80
2023/01/28 09:20:25;;;;;;;10.02;7.85;;;;;;;2.10;76.39;103214.53;6189977;23;20023;-80
2023/01/28 09:22:53;;;;;;;9.55;7.43;;;;;;;2.10;76.14;103220.53;6162967;23;20026;-80
2023/01/28 09:25:19;;;;;;;9.82;7.57;;;;;;;2.16;76.27;103219.25;6163255;23;20088;-80
2023/01/28 09:27:46;;;;;;;10.70;7.15;;;;;;;2.12;76.45;103218.38;6163584;23;20049;-80
2023/01/28 09:30:13;;;;;;;10.30;7.43;;;;;;;2.15;76.43;103228.25;6189783;23;20017;-80
2023/01/28 09:32:40;;;;;;;9.77;7.85;;;;;;;2.15;76.29;103225.63;6163109;23;20027;-80
2023/01/28 09:35:07;;;;;;;10.93;7.38;;;;;;;2.15;76.16;103220.34;6190210;23;20013;-80
2023/01/28 09:37:33;;;;;;;9.32;7.68;;;;;;;2.19;76.57;103231.00;6189224;23;20014;-80
2023/01/28 09:40:01;;;;;;;8.07;6.60;;;;;;;2.26;76.52;103239.91;6163850;23;20025;-80
2023/01/28 09:42:46;;;;;;;9.02;7.03;;;;;;;2.25;76.40;103242.84;6163174;23;20021;-80
2023/01/28 09:45:20;;;;;;;9.50;7.22;;;;;;;2.24;76.10;103247.34;6189812;23;20064;-80
2023/01/28 09:47:52;;;;;;;9.35;7.25;;;;;;;2.30;75.75;103247.94;6163334;23;20017;-80
2023/01/28 09:50:35;;;;;;;8.45;6.82;;;;;;;2.35;76.16;103242.47;6188991;23;20070;-80
2023/01/28 09:53:09;;;;;;;8.82;6.57;;;;;;;2.33;75.97;103237.53;6187287;23;20022;-80
2023/01/28 09:55:43;;;;;;;9.55;7.25;;;;;;;2.34;75.88;103225.94;6187892;23;20025;-80
2023/01/28 09:58:13;;;;;;;9.48;7.32;;;;;;;2.28;75.96;103231.72;6161240;23;20013;-80
2023/01/28 10:00:44;;;;;;;10.80;7.38;;;;;;;2.28;76.07;103247.47;6161120;23;20018;-80
2023/01/28 10:03:27;;;;;;;8.50;6.72;;;;;;;2.29;76.22;103249.00;6160506;23;20026;-79
2023/01/28 10:06:08;;;;;;;9.27;7.03;;;;;;;2.35;75.76;103250.38;6187794;23;20018;-79
2023/01/28 10:09:12;;;;;;;9.20;6.75;;;;;;;2.37;75.67;103247.41;6186646;23;20018;-79
2023/01/28 10:11:46;;;;;;;10.48;7.03;;;;;;;2.42;75.78;103252.44;6187702;23;20435;-79
2023/01/28 10:14:32;;;;;;;11.77;6.88;;;;;;;2.45;75.73;103252.56;6187195;23;20018;-78
2023/01/28 10:17:17;;;;;;;8.93;6.93;;;;;;;2.50;75.48;103249.75;6187529;23;20020;-79
2023/01/28 10:19:52;;;;;;;9.68;7.68;;;;;;;2.50;75.28;103243.72;6187859;23;20073;-79
2023/01/28 10:22:35;;;;;;;9.82;6.95;;;;;;;2.55;75.39;103254.06;6186749;23;20017;-79
2023/01/28 10:25:12;;;;;;;8.93;7.00;;;;;;;2.55;74.98;103241.66;6161131;23;20408;-79
2023/01/28 10:27:39;;;;;;;7.93;6.28;;;;;;;2.54;74.63;103229.63;6187579;23;20010;-78
2023/01/28 10:30:22;;;;;;;9.75;6.57;;;;;;;2.53;74.55;103241.22;6187515;23;20024;-78
2023/01/28 10:33:09;;;;;;;8.25;6.20;;;;;;;2.55;73.97;103241.66;6187304;23;20093;-78
2023/01/28 10:35:41;;;;;;;8.88;6.13;;;;;;;2.58;74.23;103233.13;6161266;23;20488;-84
2023/01/28 10:38:13;;;;;;;7.43;6.00;;;;;;;2.61;73.90;103231.72;6161958;23;20093;-80
2023/01/28 10:40:41;;;;;;;10.90;5.78;;;;;;;2.63;73.86;103226.91;6188366;23;20014;-80
2023/01/28 10:43:08;;;;;;;10.02;7.00;;;;;;;2.65;73.65;103235.25;6161334;23;20025;-81
2023/01/28 10:45:53;;;;;;;7.63;5.55;;;;;;;2.67;73.91;103233.84;6188388;23;20440;-78
2023/01/28 10:48:34;;;;;;;8.73;6.70;;;;;;;2.69;73.87;103220.34;6189392;23;20056;-79
2023/01/28 10:51:04;;;;;;;6.50;5.60;;;;;;;2.72;74.21;103217.06;6145773;23;1073680;-80
2023/01/28 10:53:40;;;;;;;7.63;6.00;;;;;;;2.76;74.09;103214.56;6190372;23;20024;-79
2023/01/28 10:56:10;;;;;;;12.40;6.05;;;;;;;2.80;73.96;103207.56;6190667;23;20017;-79
2023/01/28 10:58:52;;;;;;;7.07;5.68;;;;;;;2.77;73.64;103210.84;6164355;23;20325;-79
2023/01/28 11:01:19;;;;;;;;;;;;;;;2.80;73.92;103205.69;6164769;23;20024;-80
2023/01/28 11:03:57;;;;;;;6.35;5.68;;;;;;;2.85;73.76;103192.31;6190673;23;20338;-80
2023/01/28 11:06:26;;;;;;;7.07;5.85;;;;;;;2.86;73.00;103180.69;6163463;23;20482;-79
2023/01/28 11:08:53;;;;;;;5.63;5.13;;;;;;;2.84;72.89;103176.84;6190756;23;20388;-80
2023/01/28 11:11:25;;;;;;;5.90;5.28;;;;;;;2.82;72.88;103169.28;6190499;23;20515;-79
2023/01/28 11:13:53;;;;;;;5.88;4.97;;;;;;;2.84;72.84;103159.22;6190531;23;20049;-79
2023/01/28 11:16:20;;;;;;;5.70;4.88;;;;;;;2.81;72.92;103169.63;6165077;23;20049;-79
2023/01/28 11:18:53;;;;;;;6.20;5.22;;;;;;;2.85;73.25;103162.59;6189790;23;20033;-81
2023/01/28 11:21:28;;;;;;;6.72;4.95;;;;;;;2.87;73.72;103142.78;6163287;23;20101;-79
2023/01/28 11:23:59;;;;;;;6.47;4.88;;;;;;;2.91;73.29;103130.50;6165515;23;20153;-79
2023/01/28 11:26:38;;;;;;;8.00;5.13;;;;;;;2.92;73.29;103129.41;6163896;23;20032;-80
2023/01/28 11:29:05;;;;;;;5.95;5.00;;;;;;;2.97;73.34;103129.19;6190817;23;20068;-80
2023/01/28 11:31:42;;;;;;;6.53;4.88;;;;;;;3.02;73.12;103125.56;6164167;23;20013;-79
2023/01/28 11:34:16;;;;;;;6.15;4.82;;;;;;;3.04;72.80;103119.97;6190010;23;20013;-79
2023/01/28 11:36:53;;;;;;;5.03;4.53;;;;;;;3.05;72.78;103119.66;6190593;23;20021;-79
2023/01/28 11:39:27;;;;;;;5.80;4.05;;;;;;;3.10;72.47;103114.16;6164096;23;20018;-79
2023/01/28 11:42:09;;;;;;;4.35;3.95;;;;;;;3.10;72.38;103106.28;6190688;23;20553;-79
2023/01/28 11:44:37;;;;;;;4.25;3.83;;;;;;;3.12;72.18;103104.09;6163854;23;20043;-80
2023/01/28 11:47:13;;;;;;;3.75;3.40;;;;;;;3.16;71.92;103109.44;6190615;23;20021;-82
2023/01/28 11:50:04;;;;;;;4.68;4.20;;;;;;;3.16;71.76;103112.09;6190173;23;20020;-77
2023/01/28 11:52:52;;;;;;;5.50;3.85;;;;;;;3.15;71.98;103116.59;6190313;23;20388;-76
2023/01/28 11:55:41;;;;;;;5.22;3.33;;;;;;;3.16;71.06;103123.38;6188831;23;20018;-80
2023/01/28 11:58:25;;;;;;;4.93;3.85;;;;;;;3.20;71.53;103128.75;6190601;23;20049;-82
2023/01/28 12:01:04;;;;;;;4.53;3.78;;;;;;;3.22;71.37;103121.28;6188864;23;20021;-80
2023/01/28 12:03:51;;;;;;;4.63;4.00;;;;;;;3.23;71.42;103144.63;6189762;23;20018;-80
2023/01/28 12:06:36;;;;;;;3.90;3.50;;;;;;;3.24;71.26;103132.22;6188478;23;20443;-80
2023/01/28 12:09:28;;;;;;;3.70;3.40;;;;;;;3.24;71.43;103129.59;6189036;23;20089;-80
2023/01/28 12:12:10;;;;;;;6.07;3.28;;;;;;;3.27;71.33;103136.84;6147726;23;20021;-80
2023/01/28 12:15:09;;;;;;;5.93;3.30;;;;;;;3.29;70.76;103132.03;6192262;23;20038;-80
2023/01/28 12:17:54;;;;;;;4.18;3.20;;;;;;;3.30;70.73;103126.41;6163540;23;20024;-80
2023/01/28 12:20:39;;;;;;;5.40;3.28;;;;;;;3.32;70.51;103140.03;6188600;23;20448;-80
2023/01/28 12:24:03;;;;;;;3.55;3.25;;;;;;;3.33;71.10;103131.03;6190428;23;20099;-80
2023/01/28 12:26:38;;;;;;;4.10;3.47;;;;;;;3.37;70.98;103139.03;6098544;23;20179;-80